Time;durP1;ratioP1;P1;durP2;ratioP2;P2;SDS_P1;SDS_P2;PMS_P1;PMS_P2;Temp;Humidity;BMP_temperature;BMP_pressure;BME280_temperature;BME280_humidity;BME280_pressure;Samples;Min_cycle;Max_cycle;Signal;HPM_P1;HPM_P2
2022/12/09 00:01:15;;;;;;;19.75;15.35;;;;;;;;;;4995948;28;20076;-65
2022/12/09 00:03:41;;;;;;;24.77;15.82;;;;;;;;;;4984631;28;20057;-62
2022/12/09 00:06:27;;;;;;;24.30;14.70;;;;;;;;;;4999522;28;20422;-64
2022/12/09 00:08:54;;;;;;;18.85;13.07;;;;;;;;;;4995791;28;20053;-64
2022/12/09 00:11:20;;;;;;;17.80;12.50;;;;;;;;;;5003608;28;20355;-63
2022/12/09 00:13:50;;;;;;;15.15;11.20;;;;;;;;;;4996509;28;20042;-63
2022/12/09 00:16:16;;;;;;;17.77;10.65;;;;;;;;;;4997387;28;20053;-65
2022/12/09 00:18:43;;;;;;;13.02;9.05;;;;;;;;;;4998287;28;20046;-64
2022/12/09 00:21:14;;;;;;;13.50;9.77;;;;;;;;;;4981705;28;20069;-63
2022/12/09 00:23:40;;;;;;;16.63;9.80;;;;;;;;;;5001001;28;20563;-62
2022/12/09 00:26:06;;;;;;;13.60;8.82;;;;;;;;;;4992534;28;20050;-62
2022/12/09 00:28:32;;;;;;;10.15;8.25;;;;;;;;;;4997881;28;20139;-62
2022/12/09 00:30:59;;;;;;;13.20;7.90;;;;;;;;;;4998068;28;20054;-65
2022/12/09 00:33:26;;;;;;;13.32;7.45;;;;;;;;;;4999235;28;20080;-62
2022/12/09 00:35:52;;;;;;;12.55;8.32;;;;;;;;;;4981795;28;20174;-62
2022/12/09 00:38:18;;;;;;;12.73;7.53;;;;;;;;;;4998449;28;20493;-60
2022/12/09 00:40:44;;;;;;;10.70;6.95;;;;;;;;;;5000011;28;20042;-65
2022/12/09 00:43:10;;;;;;;9.80;6.63;;;;;;;;;;4993816;28;20049;-62
2022/12/09 00:45:36;;;;;;;8.35;6.22;;;;;;;;;;4998726;28;20267;-62
2022/12/09 00:48:02;;;;;;;8.75;7.00;;;;;;;;;;4994535;28;20061;-63
2022/12/09 00:50:28;;;;;;;9.80;7.18;;;;;;;;;;5002990;28;20548;-62
2022/12/09 00:52:54;;;;;;;9.57;7.18;;;;;;;;;;4996594;28;20046;-61
2022/12/09 00:55:20;;;;;;;11.13;6.82;;;;;;;;;;5000543;28;20145;-60
2022/12/09 00:57:46;;;;;;;7.18;5.78;;;;;;;;;;4994235;28;20054;-70
2022/12/09 01:00:12;;;;;;;10.52;6.60;;;;;;;;;;4998588;28;20049;-61
2022/12/09 01:02:38;;;;;;;9.10;6.30;;;;;;;;;;4999046;28;20136;-63
2022/12/09 01:05:04;;;;;;;9.32;5.35;;;;;;;;;;4996778;28;20129;-63
2022/12/09 01:07:30;;;;;;;5.32;4.10;;;;;;;;;;5001906;28;20077;-62
2022/12/09 01:09:56;;;;;;;7.45;4.05;;;;;;;;;;5001892;28;20069;-62
2022/12/09 01:12:22;;;;;;;6.50;4.03;;;;;;;;;;5003233;28;20058;-61
2022/12/09 01:14:48;;;;;;;7.65;4.20;;;;;;;;;;4998804;28;20066;-61
2022/12/09 01:17:14;;;;;;;7.95;4.47;;;;;;;;;;4996815;28;20493;-62
2022/12/09 01:19:39;;;;;;;6.45;4.70;;;;;;;;;;4997490;28;20060;-63
2022/12/09 01:22:06;;;;;;;5.50;4.60;;;;;;;;;;4998627;28;20056;-63
2022/12/09 01:24:31;;;;;;;8.57;5.75;;;;;;;;;;4991981;28;20046;-62
2022/12/09 01:26:57;;;;;;;9.15;6.15;;;;;;;;;;4997144;28;20484;-62
2022/12/09 01:29:23;;;;;;;10.52;6.22;;;;;;;;;;5001806;28;20080;-62
2022/12/09 01:31:49;;;;;;;7.50;5.88;;;;;;;;;;4999918;28;20644;-61
2022/12/09 01:34:15;;;;;;;7.88;5.80;;;;;;;;;;5003974;28;20046;-62
2022/12/09 01:36:41;;;;;;;9.02;5.15;;;;;;;;;;4998872;28;20096;-64
2022/12/09 01:39:09;;;;;;;8.68;6.07;;;;;;;;;;4983400;28;20042;-60
2022/12/09 01:41:35;;;;;;;8.65;4.97;;;;;;;;;;5002208;28;20522;-63
2022/12/09 01:44:22;;;;;;;6.65;4.68;;;;;;;;;;4996078;28;20112;-62
2022/12/09 01:46:53;;;;;;;7.13;3.53;;;;;;;;;;5000739;28;20064;-61
2022/12/09 01:49:23;;;;;;;5.82;4.05;;;;;;;;;;5003088;28;20050;-64
2022/12/09 01:52:21;;;;;;;4.80;2.97;;;;;;;;;;4992364;28;20054;-67
2022/12/09 01:54:49;;;;;;;3.55;2.60;;;;;;;;;;4999102;28;20117;-64
2022/12/09 01:57:15;;;;;;;3.97;2.45;;;;;;;;;;4995724;28;20041;-63
2022/12/09 01:59:41;;;;;;;4.88;2.50;;;;;;;;;;4996699;28;20046;-63
2022/12/09 02:02:10;;;;;;;3.65;2.03;;;;;;;;;;4997462;28;20058;-65
2022/12/09 02:04:40;;;;;;;4.38;2.38;;;;;;;;;;4989103;28;20116;-63
2022/12/09 02:07:09;;;;;;;5.07;2.20;;;;;;;;;;4998943;28;20042;-62
2022/12/09 02:09:36;;;;;;;2.05;1.85;;;;;;;;;;4997156;28;20053;-62
2022/12/09 02:12:26;;;;;;;2.22;1.50;;;;;;;;;;4996733;28;20759;-63
2022/12/09 02:15:07;;;;;;;3.08;1.60;;;;;;;;;;5002537;28;20058;-61
2022/12/09 02:17:43;;;;;;;4.93;1.70;;;;;;;;;;4999725;28;20057;-64
2022/12/09 02:20:26;;;;;;;2.65;1.50;;;;;;;;;;4999299;28;20045;-63
2022/12/09 02:23:02;;;;;;;2.88;1.48;;;;;;;;;;4982852;28;20081;-59
2022/12/09 02:25:46;;;;;;;1.90;1.40;;;;;;;;;;4999205;28;20077;-60
2022/12/09 02:28:31;;;;;;;1.73;1.30;;;;;;;;;;4986569;28;20500;-61
2022/12/09 02:31:34;;;;;;;1.23;0.95;;;;;;;;;;4996333;28;20057;-61
2022/12/09 02:34:18;;;;;;;2.40;1.10;;;;;;;;;;5001215;28;21064;-64
2022/12/09 02:36:53;;;;;;;2.38;0.98;;;;;;;;;;4996267;28;20042;-65
2022/12/09 02:39:24;;;;;;;1.27;0.98;;;;;;;;;;5003240;28;20057;-64
2022/12/09 02:41:51;;;;;;;1.50;0.90;;;;;;;;;;4984101;28;20203;-61
2022/12/09 02:44:20;;;;;;;1.77;1.05;;;;;;;;;;4999358;28;20701;-62
2022/12/09 02:46:48;;;;;;;1.50;0.98;;;;;;;;;;4991896;28;20104;-62
2022/12/09 02:49:14;;;;;;;1.35;1.00;;;;;;;;;;4980196;28;20057;-63
2022/12/09 02:51:42;;;;;;;1.27;0.90;;;;;;;;;;5002688;28;20084;-63
2022/12/09 02:54:14;;;;;;;3.10;1.23;;;;;;;;;;4999262;28;20046;-63
2022/12/09 02:56:45;;;;;;;1.75;1.00;;;;;;;;;;5003558;28;20091;-63
2022/12/09 02:59:11;;;;;;;1.55;1.05;;;;;;;;;;4996489;28;20756;-62
2022/12/09 03:01:56;;;;;;;3.03;0.98;;;;;;;;;;5002189;28;20053;-61
2022/12/09 03:04:25;;;;;;;1.50;0.85;;;;;;;;;;4996690;28;20196;-62
2022/12/09 03:06:53;;;;;;;1.10;0.80;;;;;;;;;;4999084;28;20046;-68
2022/12/09 03:09:27;;;;;;;2.72;0.73;;;;;;;;;;5000133;28;20042;-62
2022/12/09 03:11:56;;;;;;;1.13;0.77;;;;;;;;;;5001410;28;20560;-66
2022/12/09 03:14:30;;;;;;;2.05;0.90;;;;;;;;;;5003513;28;20046;-61
2022/12/09 03:17:12;;;;;;;7.10;1.02;;;;;;;;;;5001329;28;20041;-62
2022/12/09 03:19:47;;;;;;;1.55;0.63;;;;;;;;;;4995519;28;20046;-61
2022/12/09 03:22:18;;;;;;;1.60;0.70;;;;;;;;;;4999805;28;20105;-63
2022/12/09 03:24:51;;;;;;;2.38;0.50;;;;;;;;;;4990016;28;20058;-62
2022/12/09 03:27:55;;;;;;;1.73;0.80;;;;;;;;;;4976083;28;20053;-62
2022/12/09 03:30:22;;;;;;;1.85;0.90;;;;;;;;;;4997485;28;20054;-62
2022/12/09 03:32:50;;;;;;;3.40;0.88;;;;;;;;;;5000080;28;20050;-60
2022/12/09 03:35:31;;;;;;;2.28;0.63;;;;;;;;;;4997564;28;20070;-63
2022/12/09 03:38:00;;;;;;;2.10;0.57;;;;;;;;;;4988398;28;20046;-62
2022/12/09 03:40:28;;;;;;;1.13;0.60;;;;;;;;;;4997388;28;20049;-60
2022/12/09 03:43:20;;;;;;;5.97;0.70;;;;;;;;;;5003910;28;20050;-61
2022/12/09 03:45:46;;;;;;;2.70;0.65;;;;;;;;;;4997628;28;20054;-60
2022/12/09 03:48:13;;;;;;;2.38;0.85;;;;;;;;;;4990064;28;20053;-62
2022/12/09 03:50:47;;;;;;;3.08;0.70;;;;;;;;;;4994486;28;20056;-60
2022/12/09 03:53:16;;;;;;;2.80;0.85;;;;;;;;;;4997170;28;20054;-61
2022/12/09 03:55:48;;;;;;;4.78;0.70;;;;;;;;;;4995936;28;20402;-60
2022/12/09 03:58:15;;;;;;;3.22;1.45;;;;;;;;;;4998356;28;20096;-64
2022/12/09 04:00:42;;;;;;;2.25;0.80;;;;;;;;;;4999678;28;20053;-61
2022/12/09 04:03:11;;;;;;;7.97;1.95;;;;;;;;;;5001297;28;20069;-64
2022/12/09 04:05:37;;;;;;;0.88;0.70;;;;;;;;;;4998888;28;20074;-63
2022/12/09 04:08:03;;;;;;;0.98;0.60;;;;;;;;;;4999578;28;20061;-65
2022/12/09 04:10:29;;;;;;;2.55;0.50;;;;;;;;;;4988986;28;20046;-60
2022/12/09 04:12:55;;;;;;;4.45;0.80;;;;;;;;;;4999836;28;20050;-62
2022/12/09 04:15:20;;;;;;;1.83;0.60;;;;;;;;;;4985755;28;20057;-62
2022/12/09 04:17:47;;;;;;;3.03;0.77;;;;;;;;;;5001709;28;20155;-63
2022/12/09 04:20:12;;;;;;;4.63;0.98;;;;;;;;;;4999070;28;20058;-62
2022/12/09 04:22:39;;;;;;;2.75;0.75;;;;;;;;;;5001315;28;20046;-62
2022/12/09 04:25:05;;;;;;;2.22;0.90;;;;;;;;;;4994086;28;20177;-62
2022/12/09 04:27:31;;;;;;;3.72;0.90;;;;;;;;;;5002418;28;20496;-59
2022/12/09 04:29:57;;;;;;;2.30;0.80;;;;;;;;;;5002161;28;20137;-60
2022/12/09 04:32:23;;;;;;;3.00;0.70;;;;;;;;;;5002548;28;20077;-66
2022/12/09 04:34:49;;;;;;;4.78;1.02;;;;;;;;;;5000493;28;20418;-61
2022/12/09 04:37:15;;;;;;;4.25;0.82;;;;;;;;;;5002024;28;20057;-60
2022/12/09 04:39:41;;;;;;;0.77;0.60;;;;;;;;;;4998504;28;20061;-61
2022/12/09 04:42:07;;;;;;;2.30;0.73;;;;;;;;;;4998288;28;20046;-60
2022/12/09 04:44:33;;;;;;;2.65;0.90;;;;;;;;;;5004559;28;20058;-62
2022/12/09 04:46:59;;;;;;;3.40;0.90;;;;;;;;;;5000848;28;20035;-59
2022/12/09 04:49:24;;;;;;;2.47;0.95;;;;;;;;;;4998254;28;20653;-63
2022/12/09 04:51:50;;;;;;;2.42;1.00;;;;;;;;;;4997076;28;20050;-59
2022/12/09 04:54:16;;;;;;;2.78;0.70;;;;;;;;;;4998806;28;20115;-61
2022/12/09 04:56:43;;;;;;;1.65;0.80;;;;;;;;;;5000830;28;20077;-62
2022/12/09 04:59:08;;;;;;;3.60;0.70;;;;;;;;;;4992282;28;20077;-60
2022/12/09 05:01:35;;;;;;;2.90;0.80;;;;;;;;;;4998433;28;20136;-62
2022/12/09 05:04:01;;;;;;;7.43;0.80;;;;;;;;;;4997385;28;20057;-60
2022/12/09 05:06:27;;;;;;;3.40;0.80;;;;;;;;;;5004857;28;20048;-63
2022/12/09 05:08:53;;;;;;;1.13;0.73;;;;;;;;;;4998573;28;20046;-63
2022/12/09 05:11:20;;;;;;;2.42;0.70;;;;;;;;;;4999986;28;20050;-62
2022/12/09 05:13:45;;;;;;;3.30;0.70;;;;;;;;;;4993523;28;20053;-63
2022/12/09 05:16:14;;;;;;;4.07;1.00;;;;;;;;;;4996212;28;20052;-62
2022/12/09 05:18:40;;;;;;;4.38;0.77;;;;;;;;;;5000631;28;20042;-62
2022/12/09 05:21:08;;;;;;;1.83;0.60;;;;;;;;;;4994967;28;20050;-63
2022/12/09 05:23:35;;;;;;;4.50;0.93;;;;;;;;;;4996008;28;20177;-62
2022/12/09 05:26:03;;;;;;;4.38;0.90;;;;;;;;;;4999855;28;20061;-63
2022/12/09 05:28:29;;;;;;;2.80;0.70;;;;;;;;;;5001074;28;20046;-66
2022/12/09 05:31:04;;;;;;;1.88;0.70;;;;;;;;;;4993939;28;20421;-64
2022/12/09 05:33:30;;;;;;;4.80;0.88;;;;;;;;;;4997297;28;20058;-62
2022/12/09 05:35:57;;;;;;;3.05;0.75;;;;;;;;;;5000391;28;20046;-65
2022/12/09 05:38:23;;;;;;;3.33;0.88;;;;;;;;;;4997062;28;20052;-62
2022/12/09 05:40:50;;;;;;;3.33;0.88;;;;;;;;;;5003846;28;20057;-64
2022/12/09 05:43:16;;;;;;;3.13;0.82;;;;;;;;;;4998509;28;20513;-63
2022/12/09 05:45:42;;;;;;;1.80;0.90;;;;;;;;;;4995574;28;20069;-64
2022/12/09 05:48:08;;;;;;;3.67;1.02;;;;;;;;;;4997135;28;20077;-62
2022/12/09 05:50:34;;;;;;;4.63;1.65;;;;;;;;;;5005014;28;20056;-62
2022/12/09 05:53:00;;;;;;;3.45;0.90;;;;;;;;;;4995145;28;20054;-63
2022/12/09 05:55:26;;;;;;;2.22;0.98;;;;;;;;;;4998352;28;20050;-62
2022/12/09 05:57:53;;;;;;;3.97;1.23;;;;;;;;;;4997015;28;20048;-61
2022/12/09 06:00:21;;;;;;;3.90;0.90;;;;;;;;;;5001863;28;20039;-65
2022/12/09 06:02:46;;;;;;;2.33;1.00;;;;;;;;;;4997045;28;20417;-60
2022/12/09 06:05:13;;;;;;;3.00;0.80;;;;;;;;;;4983693;28;20057;-61
2022/12/09 06:07:39;;;;;;;3.00;1.20;;;;;;;;;;5002812;28;20038;-63
2022/12/09 06:10:05;;;;;;;6.40;1.23;;;;;;;;;;5001448;28;20658;-63
2022/12/09 06:12:31;;;;;;;4.30;1.27;;;;;;;;;;5001215;28;20042;-65
2022/12/09 06:14:57;;;;;;;7.18;1.67;;;;;;;;;;5003039;28;20065;-61
2022/12/09 06:17:26;;;;;;;3.53;1.63;;;;;;;;;;4981310;28;20045;-59
2022/12/09 06:19:53;;;;;;;4.15;1.33;;;;;;;;;;4996932;28;20054;-65
2022/12/09 06:22:18;;;;;;;4.15;1.70;;;;;;;;;;4997940;28;20497;-64
2022/12/09 06:24:44;;;;;;;4.75;0.95;;;;;;;;;;4996028;28;20076;-65
2022/12/09 06:27:10;;;;;;;3.22;1.13;;;;;;;;;;4994615;28;20053;-64
2022/12/09 06:29:36;;;;;;;3.60;1.00;;;;;;;;;;4999224;28;20057;-63
2022/12/09 06:32:03;;;;;;;3.47;0.80;;;;;;;;;;4999467;28;20107;-62
2022/12/09 06:34:29;;;;;;;2.65;0.93;;;;;;;;;;4997277;28;20046;-62
2022/12/09 06:36:55;;;;;;;4.03;1.33;;;;;;;;;;4994488;28;20445;-64
2022/12/09 06:39:21;;;;;;;3.42;1.30;;;;;;;;;;4999574;28;20409;-63
2022/12/09 06:41:47;;;;;;;4.47;1.00;;;;;;;;;;5006720;28;20050;-62
2022/12/09 06:44:13;;;;;;;2.20;1.00;;;;;;;;;;5001838;28;20050;-61
2022/12/09 06:46:39;;;;;;;3.88;1.13;;;;;;;;;;4998453;28;20053;-62
2022/12/09 06:49:05;;;;;;;6.55;1.30;;;;;;;;;;4993016;28;20050;-62
2022/12/09 06:51:31;;;;;;;1.38;1.10;;;;;;;;;;5001362;28;20045;-65
2022/12/09 06:53:57;;;;;;;4.63;1.00;;;;;;;;;;4995774;28;20741;-63
2022/12/09 06:56:23;;;;;;;3.42;1.13;;;;;;;;;;5003228;28;20845;-62
2022/12/09 06:58:50;;;;;;;4.40;1.00;;;;;;;;;;5000371;28;20073;-64
2022/12/09 07:01:21;;;;;;;1.95;0.90;;;;;;;;;;4997069;28;20077;-63
2022/12/09 07:03:51;;;;;;;3.28;0.93;;;;;;;;;;5004859;28;20060;-62
2022/12/09 07:06:31;;;;;;;1.83;0.90;;;;;;;;;;4995147;28;20054;-61
2022/12/09 07:09:09;;;;;;;4.60;1.10;;;;;;;;;;5001862;28;20042;-63
2022/12/09 07:11:36;;;;;;;3.40;1.00;;;;;;;;;;4995425;28;20070;-63
2022/12/09 07:14:03;;;;;;;4.03;1.02;;;;;;;;;;4988839;28;20054;-61
2022/12/09 07:16:29;;;;;;;4.82;1.35;;;;;;;;;;5000997;28;20072;-60
2022/12/09 07:18:56;;;;;;;3.03;1.15;;;;;;;;;;5002571;28;20054;-60
2022/12/09 07:21:22;;;;;;;3.42;1.02;;;;;;;;;;4995633;28;20065;-64
2022/12/09 07:23:49;;;;;;;4.38;1.10;;;;;;;;;;4991221;28;20058;-64
2022/12/09 07:26:15;;;;;;;7.18;2.90;;;;;;;;;;5000979;28;20807;-62
2022/12/09 07:28:42;;;;;;;3.63;1.05;;;;;;;;;;5001400;28;20054;-63
2022/12/09 07:31:23;;;;;;;6.55;1.52;;;;;;;;;;5002377;28;20089;-67
2022/12/09 07:33:51;;;;;;;3.22;1.40;;;;;;;;;;5003250;28;20092;-62
2022/12/09 07:36:17;;;;;;;6.80;1.23;;;;;;;;;;5003609;28;20127;-63
2022/12/09 07:38:44;;;;;;;4.20;1.60;;;;;;;;;;4997033;28;20050;-64
2022/12/09 07:41:16;;;;;;;5.63;1.20;;;;;;;;;;4976608;28;20379;-64
2022/12/09 07:43:44;;;;;;;5.22;1.10;;;;;;;;;;4991870;28;20067;-59
2022/12/09 07:46:11;;;;;;;5.00;1.30;;;;;;;;;;5001181;28;20053;-65
2022/12/09 07:48:37;;;;;;;6.35;1.52;;;;;;;;;;4997042;28;20046;-62
2022/12/09 07:51:04;;;;;;;6.70;1.80;;;;;;;;;;4997071;28;20099;-61
2022/12/09 07:53:33;;;;;;;2.90;1.40;;;;;;;;;;5002816;28;20470;-62
2022/12/09 07:56:04;;;;;;;7.47;1.65;;;;;;;;;;5007160;28;20053;-60
2022/12/09 07:58:30;;;;;;;6.63;1.55;;;;;;;;;;4991194;28;20052;-62
2022/12/09 08:00:56;;;;;;;2.80;1.42;;;;;;;;;;4999163;28;20045;-62
2022/12/09 08:03:22;;;;;;;5.90;1.30;;;;;;;;;;5007361;28;20120;-69
2022/12/09 08:05:49;;;;;;;5.95;2.05;;;;;;;;;;5005280;28;20479;-63
2022/12/09 08:08:16;;;;;;;3.80;1.40;;;;;;;;;;4999222;28;20048;-66
2022/12/09 08:10:42;;;;;;;4.78;2.08;;;;;;;;;;5004783;28;20068;-63
2022/12/09 08:13:09;;;;;;;4.07;1.45;;;;;;;;;;4993437;28;20054;-60
2022/12/09 08:15:35;;;;;;;2.25;1.20;;;;;;;;;;4983341;28;20152;-62
2022/12/09 08:18:01;;;;;;;4.03;1.38;;;;;;;;;;4997372;28;20046;-64
2022/12/09 08:20:27;;;;;;;4.55;1.20;;;;;;;;;;4999058;28;20096;-62
2022/12/09 08:22:53;;;;;;;2.90;0.98;;;;;;;;;;4997239;28;20053;-64
2022/12/09 08:25:19;;;;;;;3.03;0.90;;;;;;;;;;5000686;28;20045;-61
2022/12/09 08:27:45;;;;;;;5.30;1.30;;;;;;;;;;5002679;28;20128;-64
2022/12/09 08:30:11;;;;;;;6.68;1.65;;;;;;;;;;5000057;28;20580;-62
2022/12/09 08:32:37;;;;;;;3.28;1.30;;;;;;;;;;4995168;28;20061;-63
2022/12/09 08:35:04;;;;;;;5.80;1.50;;;;;;;;;;4996345;28;20471;-62
2022/12/09 08:37:30;;;;;;;5.00;1.20;;;;;;;;;;5003083;28;20053;-62
2022/12/09 08:39:56;;;;;;;2.83;1.50;;;;;;;;;;5004634;28;20085;-61
2022/12/09 08:46:00;;;;;;;6.25;1.50;;;;;;;;;;4996385;28;20041;-62
2022/12/09 08:48:26;;;;;;;9.88;1.55;;;;;;;;;;4994058;28;20042;-64
2022/12/09 08:50:52;;;;;;;4.47;2.05;;;;;;;;;;4998739;28;20046;-63
2022/12/09 08:53:18;;;;;;;12.48;2.55;;;;;;;;;;5003267;28;20041;-65
2022/12/09 08:55:44;;;;;;;9.30;3.95;;;;;;;;;;5002567;28;20139;-63
2022/12/09 08:58:11;;;;;;;8.35;2.53;;;;;;;;;;4994410;28;20077;-64
2022/12/09 09:00:37;;;;;;;9.45;2.20;;;;;;;;;;5000453;28;20038;-64
2022/12/09 09:03:03;;;;;;;6.60;1.88;;;;;;;;;;4989668;28;20057;-66
2022/12/09 09:05:29;;;;;;;4.38;1.95;;;;;;;;;;4995931;28;20066;-64
2022/12/09 09:07:55;;;;;;;5.00;2.22;;;;;;;;;;5001501;28;20053;-64
2022/12/09 09:10:21;;;;;;;6.28;1.85;;;;;;;;;;5007455;28;20046;-60
2022/12/09 09:12:47;;;;;;;8.88;2.33;;;;;;;;;;4998856;28;20053;-62
2022/12/09 09:15:12;;;;;;;8.13;2.72;;;;;;;;;;4993212;28;20613;-62
2022/12/09 09:17:39;;;;;;;9.95;2.90;;;;;;;;;;4999894;28;20585;-61
2022/12/09 09:20:05;;;;;;;15.90;4.80;;;;;;;;;;5001862;28;20048;-64
2022/12/09 09:22:32;;;;;;;10.35;4.22;;;;;;;;;;4999700;28;20049;-64
2022/12/09 09:24:58;;;;;;;15.02;4.43;;;;;;;;;;4995784;28;20069;-63
2022/12/09 09:27:24;;;;;;;11.05;4.43;;;;;;;;;;4999640;28;20046;-61
2022/12/09 09:29:50;;;;;;;11.60;4.65;;;;;;;;;;5003291;28;20060;-65
2022/12/09 09:32:16;;;;;;;8.27;3.63;;;;;;;;;;5000384;28;20054;-64
2022/12/09 09:34:44;;;;;;;14.50;3.45;;;;;;;;;;5003597;28;20062;-64
2022/12/09 09:37:10;;;;;;;6.00;2.90;;;;;;;;;;5010964;28;20054;-63
2022/12/09 09:39:36;;;;;;;11.32;3.33;;;;;;;;;;5006443;28;20056;-61
2022/12/09 09:42:05;;;;;;;6.82;3.20;;;;;;;;;;5002809;28;20073;-65
2022/12/09 09:44:43;;;;;;;10.90;3.40;;;;;;;;;;4998834;28;20693;-62
2022/12/09 09:47:36;;;;;;;18.27;3.58;;;;;;;;;;5003169;28;20129;-65
2022/12/09 09:50:17;;;;;;;12.95;3.42;;;;;;;;;;5000284;28;20046;-60
2022/12/09 09:52:43;;;;;;;10.40;3.97;;;;;;;;;;5005741;28;20053;-71
2022/12/09 09:55:16;;;;;;;7.00;3.17;;;;;;;;;;5007081;28;20112;-63
2022/12/09 09:58:12;;;;;;;6.68;2.92;;;;;;;;;;5005968;28;20219;-61
2022/12/09 10:00:54;;;;;;;7.82;2.92;;;;;;;;;;4999163;28;20706;-64
2022/12/09 10:03:40;;;;;;;6.18;3.30;;;;;;;;;;4998718;28;20046;-65
2022/12/09 10:06:30;;;;;;;9.15;3.05;;;;;;;;;;4999840;28;20104;-61
2022/12/09 10:09:25;;;;;;;6.90;2.50;;;;;;;;;;4998296;28;20605;-65
2022/12/09 10:11:57;;;;;;;6.03;2.63;;;;;;;;;;5004948;28;20054;-62
2022/12/09 10:14:40;;;;;;;3.97;2.10;;;;;;;;;;5002083;28;20049;-63
2022/12/09 10:17:31;;;;;;;4.60;1.90;;;;;;;;;;4999615;28;20104;-63
2022/12/09 10:20:05;;;;;;;6.40;2.00;;;;;;;;;;4983296;28;20069;-62
2022/12/09 10:22:43;;;;;;;3.70;1.50;;;;;;;;;;5005164;28;20505;-63
2022/12/09 10:25:21;;;;;;;3.55;1.35;;;;;;;;;;5001938;28;20050;-64
2022/12/09 10:28:04;;;;;;;4.93;1.80;;;;;;;;;;4977416;28;20731;-61
2022/12/09 10:30:30;;;;;;;3.00;1.45;;;;;;;;;;4996915;28;20057;-62
2022/12/09 10:32:56;;;;;;;4.00;1.75;;;;;;;;;;4992966;28;20046;-60
2022/12/09 10:35:28;;;;;;;3.00;1.50;;;;;;;;;;4985243;28;20108;-61
2022/12/09 10:38:04;;;;;;;3.83;1.20;;;;;;;;;;4996590;28;20528;-62
2022/12/09 10:40:34;;;;;;;6.82;1.80;;;;;;;;;;5001138;28;20057;-65
2022/12/09 10:43:41;;;;;;;4.25;1.67;;;;;;;;;;5006110;28;20054;-64
2022/12/09 10:46:26;;;;;;;5.07;1.77;;;;;;;;;;4998091;28;20097;-65
2022/12/09 10:48:57;;;;;;;3.05;1.60;;;;;;;;;;5001928;28;20050;-62
2022/12/09 10:51:26;;;;;;;2.67;1.30;;;;;;;;;;5003556;28;20285;-65
2022/12/09 10:53:58;;;;;;;4.53;1.60;;;;;;;;;;5002764;28;20061;-64
2022/12/09 10:56:28;;;;;;;4.35;1.55;;;;;;;;;;4996969;28;20123;-62
2022/12/09 10:59:18;;;;;;;3.15;1.20;;;;;;;;;;4996209;28;20073;-65
2022/12/09 11:01:56;;;;;;;5.80;1.95;;;;;;;;;;4999433;28;20053;-61
2022/12/09 11:04:37;;;;;;;8.68;2.00;;;;;;;;;;4999195;28;20386;-63
2022/12/09 11:07:06;;;;;;;4.65;1.60;;;;;;;;;;5002782;28;20050;-67
2022/12/09 11:09:34;;;;;;;4.18;1.83;;;;;;;;;;5002095;28;20119;-63
2022/12/09 11:12:03;;;;;;;8.43;1.30;;;;;;;;;;5002464;28;20050;-63
2022/12/09 11:14:40;;;;;;;2.28;1.15;;;;;;;;;;5006550;28;20037;-65
2022/12/09 11:17:15;;;;;;;3.28;1.50;;;;;;;;;;5002613;28;20052;-63
2022/12/09 11:19:42;;;;;;;6.88;1.70;;;;;;;;;;4988632;28;20093;-62
2022/12/09 11:22:40;;;;;;;5.07;1.60;;;;;;;;;;4986815;28;20054;-62
2022/12/09 11:25:36;;;;;;;4.10;1.50;;;;;;;;;;4998929;28;20050;-62
2022/12/09 11:28:20;;;;;;;5.18;1.63;;;;;;;;;;4984858;28;20049;-62
2022/12/09 11:30:51;;;;;;;3.05;1.60;;;;;;;;;;5003236;28;20165;-63
2022/12/09 11:33:24;;;;;;;2.83;1.20;;;;;;;;;;5002315;28;20054;-63
2022/12/09 11:36:00;;;;;;;3.78;1.08;;;;;;;;;;5004143;28;20064;-66
2022/12/09 11:38:29;;;;;;;3.65;1.17;;;;;;;;;;4998436;28;20313;-65
2022/12/09 11:41:03;;;;;;;3.88;1.60;;;;;;;;;;4996144;28;20034;-63
2022/12/09 11:43:49;;;;;;;3.95;1.92;;;;;;;;;;5005147;28;20326;-65
2022/12/09 11:46:28;;;;;;;5.40;1.90;;;;;;;;;;4998431;28;20060;-63
2022/12/09 11:49:01;;;;;;;3.90;2.10;;;;;;;;;;5000253;28;20111;-63
2022/12/09 11:51:36;;;;;;;5.53;2.42;;;;;;;;;;5001092;28;20572;-62
2022/12/09 11:54:24;;;;;;;7.20;3.05;;;;;;;;;;4997366;28;20054;-64
2022/12/09 11:56:51;;;;;;;5.22;1.77;;;;;;;;;;4987209;28;21386;-65
2022/12/09 11:59:24;;;;;;;4.50;2.35;;;;;;;;;;5006043;28;20049;-62
2022/12/09 12:02:00;;;;;;;5.13;2.10;;;;;;;;;;4997046;28;20049;-64
2022/12/09 12:04:34;;;;;;;5.50;2.15;;;;;;;;;;5003567;28;20053;-70
2022/12/09 12:07:09;;;;;;;7.18;2.33;;;;;;;;;;5003409;28;20074;-61
2022/12/09 12:09:41;;;;;;;5.72;2.20;;;;;;;;;;5002874;28;20144;-65
2022/12/09 12:12:16;;;;;;;3.95;2.15;;;;;;;;;;5001310;28;20045;-64
2022/12/09 12:14:42;;;;;;;11.23;2.70;;;;;;;;;;5000703;28;20049;-62
2022/12/09 12:17:29;;;;;;;7.15;2.20;;;;;;;;;;5001727;28;20528;-62
2022/12/09 12:19:56;;;;;;;6.07;2.35;;;;;;;;;;4997499;28;20053;-61
2022/12/09 12:22:46;;;;;;;7.22;2.05;;;;;;;;;;5001514;28;20050;-62
2022/12/09 12:25:47;;;;;;;4.60;1.83;;;;;;;;;;5002448;28;20062;-63
2022/12/09 12:28:38;;;;;;;5.97;1.80;;;;;;;;;;5000997;28;20152;-62
2022/12/09 12:31:42;;;;;;;5.68;2.20;;;;;;;;;;4998660;28;20100;-63
2022/12/09 12:34:34;;;;;;;9.98;2.25;;;;;;;;;;4999314;28;20120;-60
2022/12/09 12:37:06;;;;;;;4.72;2.40;;;;;;;;;;4998588;28;20060;-59
2022/12/09 12:39:39;;;;;;;3.75;2.00;;;;;;;;;;4999776;28;20136;-60
2022/12/09 12:42:23;;;;;;;10.88;2.03;;;;;;;;;;4999926;28;20393;-62
2022/12/09 12:48:13;;;;;;;8.32;2.25;;;;;;;;;;4995215;28;20054;-58
2022/12/09 12:50:42;;;;;;;3.33;1.88;;;;;;;;;;4998219;28;20045;-63
2022/12/09 12:53:19;;;;;;;5.07;2.08;;;;;;;;;;4997460;28;20050;-66
2022/12/09 12:55:56;;;;;;;7.50;2.10;;;;;;;;;;4997692;28;20054;-68
2022/12/09 12:58:31;;;;;;;3.95;1.90;;;;;;;;;;4997888;28;20042;-59
2022/12/09 13:01:06;;;;;;;5.97;2.42;;;;;;;;;;4996845;28;20045;-68
2022/12/09 13:03:44;;;;;;;11.77;2.30;;;;;;;;;;4996939;28;20056;-61
2022/12/09 13:06:15;;;;;;;7.97;2.40;;;;;;;;;;4999948;28;20058;-62
2022/12/09 13:08:54;;;;;;;10.02;2.40;;;;;;;;;;4999622;28;20581;-63
2022/12/09 13:11:27;;;;;;;7.55;2.70;;;;;;;;;;4996416;28;20060;-59
2022/12/09 13:13:57;;;;;;;7.35;2.78;;;;;;;;;;4993438;28;20042;-64
2022/12/09 13:16:31;;;;;;;13.30;3.15;;;;;;;;;;4994723;28;20481;-60
2022/12/09 13:19:03;;;;;;;;;;;;;;;;;;5002177;28;20789;-62
2022/12/09 13:21:29;;;;;;;7.22;3.30;;;;;;;;;;4992704;28;19969;-62
2022/12/09 13:24:07;;;;;;;7.18;3.33;;;;;;;;;;4978299;28;20112;-63
2022/12/09 13:26:46;;;;;;;8.60;3.30;;;;;;;;;;4997246;28;20077;-62
2022/12/09 13:29:24;;;;;;;8.70;3.75;;;;;;;;;;4996036;28;20052;-61
2022/12/09 13:32:16;;;;;;;10.30;3.20;;;;;;;;;;4999738;28;20061;-62
2022/12/09 13:34:50;;;;;;;10.98;3.10;;;;;;;;;;4993345;28;20157;-60
2022/12/09 13:37:33;;;;;;;7.03;3.03;;;;;;;;;;4985014;28;20038;-61
2022/12/09 13:40:00;;;;;;;9.33;4.17;;;;;;;;;;4991408;28;20168;-63
2022/12/09 13:45:13;;;;;;;6.78;3.25;;;;;;;;;;4994733;28;20048;-61
2022/12/09 13:47:39;;;;;;;8.00;3.10;;;;;;;;;;4990171;28;20504;-66
2022/12/09 13:50:21;;;;;;;9.95;3.97;;;;;;;;;;4982134;28;20045;-61
2022/12/09 13:52:54;;;;;;;8.15;3.80;;;;;;;;;;4992906;28;20141;-67
2022/12/09 13:55:26;;;;;;;7.32;3.58;;;;;;;;;;4986890;28;20129;-61
2022/12/09 13:58:08;;;;;;;8.18;3.58;;;;;;;;;;5001770;28;20054;-60
2022/12/09 14:00:34;;;;;;;9.43;4.10;;;;;;;;;;4993183;28;20058;-62
2022/12/09 14:03:10;;;;;;;7.35;3.78;;;;;;;;;;4992471;28;20053;-61
2022/12/09 14:05:36;;;;;;;7.95;3.95;;;;;;;;;;4999365;28;20071;-61
2022/12/09 14:08:24;;;;;;;9.88;3.90;;;;;;;;;;5001155;28;20149;-61
2022/12/09 14:10:51;;;;;;;9.15;4.05;;;;;;;;;;5004858;28;20049;-62
2022/12/09 14:13:34;;;;;;;8.63;3.92;;;;;;;;;;5008571;28;20048;-60
2022/12/09 14:16:09;;;;;;;13.10;4.57;;;;;;;;;;4999528;28;20050;-61
2022/12/09 14:18:35;;;;;;;7.57;3.50;;;;;;;;;;5001094;28;20124;-61
2022/12/09 14:21:16;;;;;;;7.80;3.70;;;;;;;;;;5002232;28;20053;-59
2022/12/09 14:24:07;;;;;;;6.20;3.50;;;;;;;;;;5000126;28;20080;-62
2022/12/09 14:26:46;;;;;;;10.15;3.50;;;;;;;;;;5000517;28;20056;-61
2022/12/09 14:29:41;;;;;;;9.88;3.67;;;;;;;;;;5001609;28;20591;-61
2022/12/09 14:32:25;;;;;;;6.75;2.88;;;;;;;;;;4998588;28;20058;-63
2022/12/09 14:35:05;;;;;;;8.32;3.30;;;;;;;;;;4982715;28;20074;-69
2022/12/09 14:38:10;;;;;;;11.80;3.05;;;;;;;;;;4995694;28;20046;-64
2022/12/09 14:40:42;;;;;;;9.98;3.28;;;;;;;;;;5001551;28;20559;-65
2022/12/09 14:43:35;;;;;;;6.63;2.80;;;;;;;;;;5004655;28;20050;-60
2022/12/09 14:46:21;;;;;;;11.73;3.00;;;;;;;;;;4993737;28;20414;-66
2022/12/09 14:49:03;;;;;;;5.85;2.80;;;;;;;;;;5001388;28;20945;-63
2022/12/09 14:51:59;;;;;;;4.53;2.22;;;;;;;;;;4998793;28;20512;-64
2022/12/09 14:54:37;;;;;;;7.15;3.15;;;;;;;;;;4994911;28;20060;-63
2022/12/09 14:57:19;;;;;;;8.27;2.20;;;;;;;;;;4999240;28;20068;-64
2022/12/09 14:59:49;;;;;;;7.95;2.60;;;;;;;;;;4995008;28;20513;-63
2022/12/09 15:02:21;;;;;;;6.40;2.55;;;;;;;;;;5000498;28;20397;-64
2022/12/09 15:04:49;;;;;;;5.90;2.42;;;;;;;;;;4994739;28;20256;-61
2022/12/09 15:07:24;;;;;;;6.07;2.55;;;;;;;;;;4983741;28;20603;-63
2022/12/09 15:10:05;;;;;;;6.43;2.80;;;;;;;;;;5001377;28;20580;-63
2022/12/09 15:12:35;;;;;;;4.13;2.22;;;;;;;;;;4977660;28;20104;-62
2022/12/09 15:15:06;;;;;;;8.10;1.95;;;;;;;;;;4997978;28;20053;-63
2022/12/09 15:17:42;;;;;;;3.83;2.13;;;;;;;;;;5004587;28;20049;-60